sensor_id;sensor_type;location;lat;lon;timestamp;P1;durP1;ratioP1;P2;durP2;ratioP2
19623;SDS011;9959;49.798;9.928;2024-02-14T00:00:39;13.15;;;5.53;;
19623;SDS011;9959;49.798;9.928;2024-02-14T00:03:07;9.82;;;5.28;;
19623;SDS011;9959;49.798;9.928;2024-02-14T00:05:34;10.30;;;5.10;;
19623;SDS011;9959;49.798;9.928;2024-02-14T00:08:01;10.48;;;5.45;;
19623;SDS011;9959;49.798;9.928;2024-02-14T00:10:29;11.00;;;5.10;;
19623;SDS011;9959;49.798;9.928;2024-02-14T00:12:56;8.80;;;4.80;;
19623;SDS011;9959;49.798;9.928;2024-02-14T00:15:23;9.50;;;4.43;;
19623;SDS011;9959;49.798;9.928;2024-02-14T00:17:52;9.95;;;5.10;;
19623;SDS011;9959;49.798;9.928;2024-02-14T00:20:19;9.25;;;4.50;;
19623;SDS011;9959;49.798;9.928;2024-02-14T00:22:46;8.98;;;5.15;;
19623;SDS011;9959;49.798;9.928;2024-02-14T00:25:13;8.20;;;4.57;;
19623;SDS011;9959;49.798;9.928;2024-02-14T00:27:45;10.35;;;4.50;;
19623;SDS011;9959;49.798;9.928;2024-02-14T00:30:12;8.20;;;4.50;;
19623;SDS011;9959;49.798;9.928;2024-02-14T00:32:40;9.48;;;5.32;;
19623;SDS011;9959;49.798;9.928;2024-02-14T00:35:07;6.90;;;4.70;;
19623;SDS011;9959;49.798;9.928;2024-02-14T00:37:35;9.50;;;4.35;;
19623;SDS011;9959;49.798;9.928;2024-02-14T00:40:02;10.50;;;4.50;;
19623;SDS011;9959;49.798;9.928;2024-02-14T00:42:29;14.50;;;5.00;;
19623;SDS011;9959;49.798;9.928;2024-02-14T00:44:56;7.78;;;4.55;;
19623;SDS011;9959;49.798;9.928;2024-02-14T00:47:23;16.20;;;4.53;;
19623;SDS011;9959;49.798;9.928;2024-02-14T00:49:49;12.50;;;5.30;;
19623;SDS011;9959;49.798;9.928;2024-02-14T00:52:17;8.82;;;4.47;;
19623;SDS011;9959;49.798;9.928;2024-02-14T00:54:43;11.52;;;4.78;;
19623;SDS011;9959;49.798;9.928;2024-02-14T00:57:10;8.13;;;4.53;;
19623;SDS011;9959;49.798;9.928;2024-02-14T00:59:39;10.10;;;4.55;;
19623;SDS011;9959;49.798;9.928;2024-02-14T01:02:06;8.43;;;4.40;;
19623;SDS011;9959;49.798;9.928;2024-02-14T01:04:33;10.52;;;4.75;;
19623;SDS011;9959;49.798;9.928;2024-02-14T01:07:05;11.48;;;4.55;;
19623;SDS011;9959;49.798;9.928;2024-02-14T01:09:32;10.00;;;3.90;;
19623;SDS011;9959;49.798;9.928;2024-02-14T01:11:59;11.73;;;4.60;;
19623;SDS011;9959;49.798;9.928;2024-02-14T01:14:26;10.20;;;4.57;;
19623;SDS011;9959;49.798;9.928;2024-02-14T01:16:53;8.65;;;4.22;;
19623;SDS011;9959;49.798;9.928;2024-02-14T01:19:20;9.98;;;4.35;;
19623;SDS011;9959;49.798;9.928;2024-02-14T01:21:47;7.47;;;4.03;;
19623;SDS011;9959;49.798;9.928;2024-02-14T01:24:15;10.77;;;4.15;;
19623;SDS011;9959;49.798;9.928;2024-02-14T01:26:42;6.50;;;3.90;;
19623;SDS011;9959;49.798;9.928;2024-02-14T01:29:09;8.77;;;3.67;;
19623;SDS011;9959;49.798;9.928;2024-02-14T01:31:36;5.32;;;3.53;;
19623;SDS011;9959;49.798;9.928;2024-02-14T01:34:03;5.22;;;3.85;;
19623;SDS011;9959;49.798;9.928;2024-02-14T01:36:31;8.60;;;3.78;;
19623;SDS011;9959;49.798;9.928;2024-02-14T01:38:57;6.38;;;3.65;;
19623;SDS011;9959;49.798;9.928;2024-02-14T01:41:24;8.55;;;3.70;;
19623;SDS011;9959;49.798;9.928;2024-02-14T01:43:51;4.45;;;3.22;;
19623;SDS011;9959;49.798;9.928;2024-02-14T01:46:19;7.90;;;3.97;;
19623;SDS011;9959;49.798;9.928;2024-02-14T01:48:46;8.75;;;3.42;;
19623;SDS011;9959;49.798;9.928;2024-02-14T01:51:13;8.45;;;3.42;;
19623;SDS011;9959;49.798;9.928;2024-02-14T01:53:44;6.50;;;3.53;;
19623;SDS011;9959;49.798;9.928;2024-02-14T01:56:11;6.25;;;2.85;;
19623;SDS011;9959;49.798;9.928;2024-02-14T01:58:38;9.93;;;2.85;;
19623;SDS011;9959;49.798;9.928;2024-02-14T02:01:06;6.15;;;3.22;;
19623;SDS011;9959;49.798;9.928;2024-02-14T02:03:33;7.40;;;3.70;;
19623;SDS011;9959;49.798;9.928;2024-02-14T02:06:05;6.60;;;3.22;;
19623;SDS011;9959;49.798;9.928;2024-02-14T02:08:33;5.88;;;3.00;;
19623;SDS011;9959;49.798;9.928;2024-02-14T02:11:00;6.40;;;3.05;;
19623;SDS011;9959;49.798;9.928;2024-02-14T02:13:28;5.82;;;3.33;;
19623;SDS011;9959;49.798;9.928;2024-02-14T02:15:55;5.30;;;2.90;;
19623;SDS011;9959;49.798;9.928;2024-02-14T02:18:22;7.10;;;3.03;;
19623;SDS011;9959;49.798;9.928;2024-02-14T02:20:49;5.47;;;2.88;;
19623;SDS011;9959;49.798;9.928;2024-02-14T02:23:16;5.78;;;2.80;;
19623;SDS011;9959;49.798;9.928;2024-02-14T02:25:43;5.93;;;2.88;;
19623;SDS011;9959;49.798;9.928;2024-02-14T02:28:10;4.65;;;3.05;;
19623;SDS011;9959;49.798;9.928;2024-02-14T02:30:37;5.10;;;2.88;;
19623;SDS011;9959;49.798;9.928;2024-02-14T02:33:04;8.82;;;3.40;;
19623;SDS011;9959;49.798;9.928;2024-02-14T02:35:33;7.07;;;2.70;;
19623;SDS011;9959;49.798;9.928;2024-02-14T02:38:01;4.80;;;2.90;;
19623;SDS011;9959;49.798;9.928;2024-02-14T02:40:28;6.32;;;3.13;;
19623;SDS011;9959;49.798;9.928;2024-02-14T02:42:55;9.07;;;2.90;;
19623;SDS011;9959;49.798;9.928;2024-02-14T02:45:22;8.10;;;3.08;;
19623;SDS011;9959;49.798;9.928;2024-02-14T02:47:49;8.27;;;3.17;;
19623;SDS011;9959;49.798;9.928;2024-02-14T02:50:18;6.25;;;3.05;;
19623;SDS011;9959;49.798;9.928;2024-02-14T02:52:46;4.90;;;3.10;;
19623;SDS011;9959;49.798;9.928;2024-02-14T02:55:14;6.38;;;2.83;;
19623;SDS011;9959;49.798;9.928;2024-02-14T02:57:43;8.00;;;2.72;;
19623;SDS011;9959;49.798;9.928;2024-02-14T03:00:12;8.38;;;2.97;;
19623;SDS011;9959;49.798;9.928;2024-02-14T03:02:40;7.60;;;2.65;;
19623;SDS011;9959;49.798;9.928;2024-02-14T03:05:11;5.05;;;2.75;;
19623;SDS011;9959;49.798;9.928;2024-02-14T03:07:45;7.57;;;2.92;;
19623;SDS011;9959;49.798;9.928;2024-02-14T03:10:14;5.28;;;2.95;;
19623;SDS011;9959;49.798;9.928;2024-02-14T03:12:46;9.98;;;2.90;;
19623;SDS011;9959;49.798;9.928;2024-02-14T03:15:14;8.13;;;2.42;;
19623;SDS011;9959;49.798;9.928;2024-02-14T03:17:41;6.32;;;2.65;;
19623;SDS011;9959;49.798;9.928;2024-02-14T03:20:09;5.70;;;2.80;;
19623;SDS011;9959;49.798;9.928;2024-02-14T03:22:43;7.57;;;2.78;;
19623;SDS011;9959;49.798;9.928;2024-02-14T03:25:20;3.50;;;2.55;;
19623;SDS011;9959;49.798;9.928;2024-02-14T03:27:47;6.97;;;2.80;;
19623;SDS011;9959;49.798;9.928;2024-02-14T03:30:19;8.02;;;2.72;;
19623;SDS011;9959;49.798;9.928;2024-02-14T03:32:47;4.13;;;2.58;;
19623;SDS011;9959;49.798;9.928;2024-02-14T03:35:14;7.75;;;2.78;;
19623;SDS011;9959;49.798;9.928;2024-02-14T03:37:42;4.80;;;3.03;;
19623;SDS011;9959;49.798;9.928;2024-02-14T03:40:10;5.60;;;2.92;;
19623;SDS011;9959;49.798;9.928;2024-02-14T03:42:38;9.70;;;3.45;;
19623;SDS011;9959;49.798;9.928;2024-02-14T03:45:08;13.77;;;4.97;;
19623;SDS011;9959;49.798;9.928;2024-02-14T03:47:36;8.55;;;3.22;;
19623;SDS011;9959;49.798;9.928;2024-02-14T03:50:10;7.32;;;3.28;;
19623;SDS011;9959;49.798;9.928;2024-02-14T03:52:37;7.65;;;3.25;;
19623;SDS011;9959;49.798;9.928;2024-02-14T03:55:04;8.50;;;3.22;;
19623;SDS011;9959;49.798;9.928;2024-02-14T03:57:31;8.00;;;3.13;;
19623;SDS011;9959;49.798;9.928;2024-02-14T04:00:02;6.75;;;3.35;;
19623;SDS011;9959;49.798;9.928;2024-02-14T04:02:30;3.55;;;2.53;;
19623;SDS011;9959;49.798;9.928;2024-02-14T04:04:58;5.45;;;3.05;;
19623;SDS011;9959;49.798;9.928;2024-02-14T04:07:25;5.50;;;2.60;;
19623;SDS011;9959;49.798;9.928;2024-02-14T04:09:53;7.90;;;3.30;;
19623;SDS011;9959;49.798;9.928;2024-02-14T04:12:20;5.72;;;2.97;;
19623;SDS011;9959;49.798;9.928;2024-02-14T04:14:47;6.43;;;2.80;;
19623;SDS011;9959;49.798;9.928;2024-02-14T04:17:15;8.55;;;3.05;;
19623;SDS011;9959;49.798;9.928;2024-02-14T04:19:41;9.10;;;3.60;;
19623;SDS011;9959;49.798;9.928;2024-02-14T04:22:08;6.57;;;2.83;;
19623;SDS011;9959;49.798;9.928;2024-02-14T04:24:35;7.07;;;2.67;;
19623;SDS011;9959;49.798;9.928;2024-02-14T04:27:03;7.10;;;2.85;;
19623;SDS011;9959;49.798;9.928;2024-02-14T04:29:31;4.13;;;2.40;;
19623;SDS011;9959;49.798;9.928;2024-02-14T04:32:00;9.43;;;2.90;;
19623;SDS011;9959;49.798;9.928;2024-02-14T04:34:28;4.93;;;2.75;;
19623;SDS011;9959;49.798;9.928;2024-02-14T04:36:57;6.35;;;3.20;;
19623;SDS011;9959;49.798;9.928;2024-02-14T04:39:24;6.97;;;2.60;;
19623;SDS011;9959;49.798;9.928;2024-02-14T04:41:51;6.63;;;2.70;;
19623;SDS011;9959;49.798;9.928;2024-02-14T04:44:30;5.95;;;2.80;;
19623;SDS011;9959;49.798;9.928;2024-02-14T04:46:58;5.93;;;2.60;;
19623;SDS011;9959;49.798;9.928;2024-02-14T04:49:26;3.78;;;2.58;;
19623;SDS011;9959;49.798;9.928;2024-02-14T04:51:56;7.60;;;3.25;;
19623;SDS011;9959;49.798;9.928;2024-02-14T04:54:23;8.85;;;3.53;;
19623;SDS011;9959;49.798;9.928;2024-02-14T04:56:53;7.15;;;3.35;;
19623;SDS011;9959;49.798;9.928;2024-02-14T04:59:24;5.47;;;2.92;;
19623;SDS011;9959;49.798;9.928;2024-02-14T05:01:52;9.57;;;2.80;;
19623;SDS011;9959;49.798;9.928;2024-02-14T05:04:20;5.45;;;2.85;;
19623;SDS011;9959;49.798;9.928;2024-02-14T05:06:47;6.13;;;2.90;;
19623;SDS011;9959;49.798;9.928;2024-02-14T05:09:15;7.18;;;3.10;;
19623;SDS011;9959;49.798;9.928;2024-02-14T05:11:42;7.82;;;2.85;;
19623;SDS011;9959;49.798;9.928;2024-02-14T05:14:09;5.22;;;2.78;;
19623;SDS011;9959;49.798;9.928;2024-02-14T05:16:36;4.65;;;2.63;;
19623;SDS011;9959;49.798;9.928;2024-02-14T05:19:03;10.10;;;2.67;;
19623;SDS011;9959;49.798;9.928;2024-02-14T05:21:30;5.30;;;2.90;;
19623;SDS011;9959;49.798;9.928;2024-02-14T05:23:57;5.40;;;2.80;;
19623;SDS011;9959;49.798;9.928;2024-02-14T05:26:24;7.07;;;3.25;;
19623;SDS011;9959;49.798;9.928;2024-02-14T05:28:51;6.60;;;3.10;;
19623;SDS011;9959;49.798;9.928;2024-02-14T05:31:18;4.57;;;2.67;;
19623;SDS011;9959;49.798;9.928;2024-02-14T05:33:44;7.40;;;3.28;;
19623;SDS011;9959;49.798;9.928;2024-02-14T05:36:11;6.43;;;3.50;;
19623;SDS011;9959;49.798;9.928;2024-02-14T05:38:38;11.45;;;3.53;;
19623;SDS011;9959;49.798;9.928;2024-02-14T05:41:06;6.20;;;3.00;;
19623;SDS011;9959;49.798;9.928;2024-02-14T05:43:34;6.25;;;2.95;;
19623;SDS011;9959;49.798;9.928;2024-02-14T05:46:01;9.57;;;3.15;;
19623;SDS011;9959;49.798;9.928;2024-02-14T05:48:28;5.18;;;2.90;;
19623;SDS011;9959;49.798;9.928;2024-02-14T05:50:55;6.35;;;2.90;;
19623;SDS011;9959;49.798;9.928;2024-02-14T05:53:22;8.65;;;3.22;;
19623;SDS011;9959;49.798;9.928;2024-02-14T05:55:49;10.02;;;3.45;;
19623;SDS011;9959;49.798;9.928;2024-02-14T05:58:16;7.50;;;3.25;;
19623;SDS011;9959;49.798;9.928;2024-02-14T06:00:43;5.55;;;2.90;;
19623;SDS011;9959;49.798;9.928;2024-02-14T06:03:10;8.20;;;3.17;;
19623;SDS011;9959;49.798;9.928;2024-02-14T06:05:37;6.70;;;3.03;;
19623;SDS011;9959;49.798;9.928;2024-02-14T06:08:04;6.18;;;3.00;;
19623;SDS011;9959;49.798;9.928;2024-02-14T06:10:30;5.30;;;2.75;;
19623;SDS011;9959;49.798;9.928;2024-02-14T06:12:57;6.70;;;2.97;;
19623;SDS011;9959;49.798;9.928;2024-02-14T06:15:25;5.63;;;3.50;;
19623;SDS011;9959;49.798;9.928;2024-02-14T06:17:52;7.78;;;2.92;;
19623;SDS011;9959;49.798;9.928;2024-02-14T06:20:19;12.68;;;3.72;;
19623;SDS011;9959;49.798;9.928;2024-02-14T06:22:46;9.13;;;3.35;;
19623;SDS011;9959;49.798;9.928;2024-02-14T06:25:26;8.57;;;3.20;;
19623;SDS011;9959;49.798;9.928;2024-02-14T06:27:53;8.45;;;2.80;;
19623;SDS011;9959;49.798;9.928;2024-02-14T06:30:23;5.13;;;2.80;;
19623;SDS011;9959;49.798;9.928;2024-02-14T06:32:53;11.68;;;3.28;;
19623;SDS011;9959;49.798;9.928;2024-02-14T06:35:20;9.40;;;3.50;;
19623;SDS011;9959;49.798;9.928;2024-02-14T06:37:47;11.30;;;3.10;;
19623;SDS011;9959;49.798;9.928;2024-02-14T06:40:28;7.38;;;3.33;;
19623;SDS011;9959;49.798;9.928;2024-02-14T06:42:56;6.75;;;3.05;;
19623;SDS011;9959;49.798;9.928;2024-02-14T06:45:28;7.50;;;2.97;;
19623;SDS011;9959;49.798;9.928;2024-02-14T06:47:55;9.65;;;2.95;;
19623;SDS011;9959;49.798;9.928;2024-02-14T06:50:23;7.80;;;2.70;;
19623;SDS011;9959;49.798;9.928;2024-02-14T06:52:52;7.35;;;2.97;;
19623;SDS011;9959;49.798;9.928;2024-02-14T06:55:19;4.43;;;2.40;;
19623;SDS011;9959;49.798;9.928;2024-02-14T06:57:46;7.20;;;3.28;;
19623;SDS011;9959;49.798;9.928;2024-02-14T07:00:13;9.02;;;2.63;;
19623;SDS011;9959;49.798;9.928;2024-02-14T07:02:40;4.70;;;2.40;;
19623;SDS011;9959;49.798;9.928;2024-02-14T07:05:07;7.63;;;2.80;;
19623;SDS011;9959;49.798;9.928;2024-02-14T07:07:35;6.25;;;2.85;;
19623;SDS011;9959;49.798;9.928;2024-02-14T07:10:02;8.25;;;3.03;;
19623;SDS011;9959;49.798;9.928;2024-02-14T07:12:32;5.82;;;2.50;;
19623;SDS011;9959;49.798;9.928;2024-02-14T07:14:59;5.10;;;2.90;;
19623;SDS011;9959;49.798;9.928;2024-02-14T07:17:26;9.57;;;2.75;;
19623;SDS011;9959;49.798;9.928;2024-02-14T07:19:53;7.97;;;2.55;;
19623;SDS011;9959;49.798;9.928;2024-02-14T07:22:20;4.15;;;2.25;;
19623;SDS011;9959;49.798;9.928;2024-02-14T07:24:46;5.03;;;2.30;;
19623;SDS011;9959;49.798;9.928;2024-02-14T07:27:14;3.90;;;1.92;;
19623;SDS011;9959;49.798;9.928;2024-02-14T07:29:41;6.00;;;2.75;;
19623;SDS011;9959;49.798;9.928;2024-02-14T07:32:09;3.40;;;2.65;;
19623;SDS011;9959;49.798;9.928;2024-02-14T07:34:38;4.38;;;2.60;;
19623;SDS011;9959;49.798;9.928;2024-02-14T07:37:08;5.97;;;2.47;;
19623;SDS011;9959;49.798;9.928;2024-02-14T07:39:35;6.20;;;2.40;;
19623;SDS011;9959;49.798;9.928;2024-02-14T07:42:02;5.72;;;2.60;;
19623;SDS011;9959;49.798;9.928;2024-02-14T07:44:30;7.50;;;2.53;;
19623;SDS011;9959;49.798;9.928;2024-02-14T07:46:57;14.18;;;3.47;;
19623;SDS011;9959;49.798;9.928;2024-02-14T07:49:29;9.02;;;2.45;;
19623;SDS011;9959;49.798;9.928;2024-02-14T07:51:56;6.03;;;2.85;;
19623;SDS011;9959;49.798;9.928;2024-02-14T07:54:23;4.70;;;2.45;;
19623;SDS011;9959;49.798;9.928;2024-02-14T07:56:50;6.40;;;2.72;;
19623;SDS011;9959;49.798;9.928;2024-02-14T07:59:17;12.30;;;2.50;;
19623;SDS011;9959;49.798;9.928;2024-02-14T08:01:44;8.32;;;3.17;;
19623;SDS011;9959;49.798;9.928;2024-02-14T08:04:11;7.20;;;2.75;;
19623;SDS011;9959;49.798;9.928;2024-02-14T08:06:38;6.72;;;3.00;;
19623;SDS011;9959;49.798;9.928;2024-02-14T08:09:05;7.45;;;3.30;;
19623;SDS011;9959;49.798;9.928;2024-02-14T08:11:36;6.25;;;2.50;;
19623;SDS011;9959;49.798;9.928;2024-02-14T08:14:03;3.53;;;2.38;;
19623;SDS011;9959;49.798;9.928;2024-02-14T08:16:31;7.07;;;2.63;;
19623;SDS011;9959;49.798;9.928;2024-02-14T08:18:58;6.00;;;2.83;;
19623;SDS011;9959;49.798;9.928;2024-02-14T08:21:26;5.00;;;2.65;;
19623;SDS011;9959;49.798;9.928;2024-02-14T08:23:57;6.07;;;2.97;;
19623;SDS011;9959;49.798;9.928;2024-02-14T08:26:27;10.23;;;2.70;;
19623;SDS011;9959;49.798;9.928;2024-02-14T08:28:55;7.47;;;2.63;;
19623;SDS011;9959;49.798;9.928;2024-02-14T08:31:22;6.32;;;2.30;;
19623;SDS011;9959;49.798;9.928;2024-02-14T08:33:49;6.70;;;2.47;;
19623;SDS011;9959;49.798;9.928;2024-02-14T08:36:16;11.88;;;2.63;;
19623;SDS011;9959;49.798;9.928;2024-02-14T08:38:46;7.03;;;2.63;;
19623;SDS011;9959;49.798;9.928;2024-02-14T08:41:13;5.55;;;2.38;;
19623;SDS011;9959;49.798;9.928;2024-02-14T08:43:45;7.82;;;2.55;;
19623;SDS011;9959;49.798;9.928;2024-02-14T08:46:13;5.75;;;2.42;;
19623;SDS011;9959;49.798;9.928;2024-02-14T08:48:41;4.00;;;2.38;;
19623;SDS011;9959;49.798;9.928;2024-02-14T08:51:15;7.07;;;2.70;;
19623;SDS011;9959;49.798;9.928;2024-02-14T08:53:43;6.05;;;2.60;;
19623;SDS011;9959;49.798;9.928;2024-02-14T08:56:12;5.22;;;3.10;;
19623;SDS011;9959;49.798;9.928;2024-02-14T08:58:40;8.57;;;2.67;;
19623;SDS011;9959;49.798;9.928;2024-02-14T09:01:08;7.25;;;2.80;;
19623;SDS011;9959;49.798;9.928;2024-02-14T09:03:43;6.75;;;2.55;;
19623;SDS011;9959;49.798;9.928;2024-02-14T09:06:16;5.15;;;2.30;;
19623;SDS011;9959;49.798;9.928;2024-02-14T09:08:48;10.13;;;3.30;;
19623;SDS011;9959;49.798;9.928;2024-02-14T09:11:17;7.30;;;2.25;;
19623;SDS011;9959;49.798;9.928;2024-02-14T09:13:44;8.23;;;2.50;;
19623;SDS011;9959;49.798;9.928;2024-02-14T09:16:14;6.68;;;2.53;;
19623;SDS011;9959;49.798;9.928;2024-02-14T09:18:41;8.43;;;2.50;;
19623;SDS011;9959;49.798;9.928;2024-02-14T09:21:09;8.68;;;2.50;;
19623;SDS011;9959;49.798;9.928;2024-02-14T09:23:36;8.00;;;2.28;;
19623;SDS011;9959;49.798;9.928;2024-02-14T09:26:06;6.47;;;2.10;;
19623;SDS011;9959;49.798;9.928;2024-02-14T09:28:33;6.97;;;2.83;;
19623;SDS011;9959;49.798;9.928;2024-02-14T09:31:01;6.60;;;2.58;;
19623;SDS011;9959;49.798;9.928;2024-02-14T09:33:30;4.57;;;2.42;;
19623;SDS011;9959;49.798;9.928;2024-02-14T09:35:58;6.72;;;2.28;;
19623;SDS011;9959;49.798;9.928;2024-02-14T09:38:24;8.52;;;5.07;;
19623;SDS011;9959;49.798;9.928;2024-02-14T09:40:53;8.45;;;3.03;;
19623;SDS011;9959;49.798;9.928;2024-02-14T09:46:07;9.80;;;2.58;;
19623;SDS011;9959;49.798;9.928;2024-02-14T09:48:35;4.85;;;2.50;;
19623;SDS011;9959;49.798;9.928;2024-02-14T09:51:05;7.63;;;2.25;;
19623;SDS011;9959;49.798;9.928;2024-02-14T09:53:34;9.88;;;2.42;;
19623;SDS011;9959;49.798;9.928;2024-02-14T09:56:04;5.57;;;2.50;;
19623;SDS011;9959;49.798;9.928;2024-02-14T09:58:32;6.75;;;2.72;;
19623;SDS011;9959;49.798;9.928;2024-02-14T10:00:58;6.07;;;2.70;;
19623;SDS011;9959;49.798;9.928;2024-02-14T10:03:26;6.57;;;2.55;;
19623;SDS011;9959;49.798;9.928;2024-02-14T10:05:53;6.05;;;2.70;;
19623;SDS011;9959;49.798;9.928;2024-02-14T10:08:21;4.80;;;2.35;;
19623;SDS011;9959;49.798;9.928;2024-02-14T10:10:49;7.35;;;2.55;;
19623;SDS011;9959;49.798;9.928;2024-02-14T10:13:19;8.63;;;2.50;;
19623;SDS011;9959;49.798;9.928;2024-02-14T10:15:46;5.55;;;2.78;;
19623;SDS011;9959;49.798;9.928;2024-02-14T10:18:14;9.48;;;2.60;;
19623;SDS011;9959;49.798;9.928;2024-02-14T10:20:41;4.40;;;2.20;;
19623;SDS011;9959;49.798;9.928;2024-02-14T10:23:11;7.45;;;2.45;;
19623;SDS011;9959;49.798;9.928;2024-02-14T10:25:38;6.13;;;2.42;;
19623;SDS011;9959;49.798;9.928;2024-02-14T10:28:06;6.65;;;2.40;;
19623;SDS011;9959;49.798;9.928;2024-02-14T10:30:35;8.88;;;2.63;;
19623;SDS011;9959;49.798;9.928;2024-02-14T10:33:04;4.88;;;2.25;;
19623;SDS011;9959;49.798;9.928;2024-02-14T10:35:49;8.93;;;2.70;;
19623;SDS011;9959;49.798;9.928;2024-02-14T10:38:20;9.00;;;2.80;;
19623;SDS011;9959;49.798;9.928;2024-02-14T10:40:48;2.55;;;2.15;;
19623;SDS011;9959;49.798;9.928;2024-02-14T10:43:17;7.07;;;2.30;;
19623;SDS011;9959;49.798;9.928;2024-02-14T10:45:44;6.65;;;2.53;;
19623;SDS011;9959;49.798;9.928;2024-02-14T10:48:12;5.35;;;2.15;;
19623;SDS011;9959;49.798;9.928;2024-02-14T10:50:42;5.82;;;2.75;;
19623;SDS011;9959;49.798;9.928;2024-02-14T10:53:14;6.45;;;2.75;;
19623;SDS011;9959;49.798;9.928;2024-02-14T10:55:47;8.30;;;2.47;;
19623;SDS011;9959;49.798;9.928;2024-02-14T10:58:16;6.10;;;2.30;;
19623;SDS011;9959;49.798;9.928;2024-02-14T11:00:46;6.53;;;2.33;;
19623;SDS011;9959;49.798;9.928;2024-02-14T11:03:13;4.32;;;2.60;;
19623;SDS011;9959;49.798;9.928;2024-02-14T11:05:45;6.85;;;2.45;;
19623;SDS011;9959;49.798;9.928;2024-02-14T11:08:14;10.32;;;2.55;;
19623;SDS011;9959;49.798;9.928;2024-02-14T11:10:41;7.65;;;2.60;;
19623;SDS011;9959;49.798;9.928;2024-02-14T11:13:15;5.43;;;2.65;;
19623;SDS011;9959;49.798;9.928;2024-02-14T11:15:44;5.60;;;2.60;;
19623;SDS011;9959;49.798;9.928;2024-02-14T11:18:13;4.22;;;2.17;;
19623;SDS011;9959;49.798;9.928;2024-02-14T11:20:40;6.30;;;2.67;;
19623;SDS011;9959;49.798;9.928;2024-02-14T11:23:09;4.38;;;2.05;;
19623;SDS011;9959;49.798;9.928;2024-02-14T11:25:38;5.47;;;2.08;;
19623;SDS011;9959;49.798;9.928;2024-02-14T11:28:14;6.13;;;2.28;;
19623;SDS011;9959;49.798;9.928;2024-02-14T11:30:48;5.47;;;2.80;;
19623;SDS011;9959;49.798;9.928;2024-02-14T11:33:18;6.47;;;2.22;;
19623;SDS011;9959;49.798;9.928;2024-02-14T11:35:48;6.07;;;2.00;;
19623;SDS011;9959;49.798;9.928;2024-02-14T11:38:23;8.80;;;2.33;;
19623;SDS011;9959;49.798;9.928;2024-02-14T11:40:55;5.82;;;2.10;;
19623;SDS011;9959;49.798;9.928;2024-02-14T11:43:25;5.10;;;2.30;;
19623;SDS011;9959;49.798;9.928;2024-02-14T11:45:53;3.58;;;2.22;;
19623;SDS011;9959;49.798;9.928;2024-02-14T11:48:20;7.43;;;2.30;;
19623;SDS011;9959;49.798;9.928;2024-02-14T11:50:51;6.00;;;2.25;;
19623;SDS011;9959;49.798;9.928;2024-02-14T11:53:19;4.68;;;1.98;;
19623;SDS011;9959;49.798;9.928;2024-02-14T11:55:46;5.63;;;2.22;;
19623;SDS011;9959;49.798;9.928;2024-02-14T11:58:14;7.00;;;2.25;;
19623;SDS011;9959;49.798;9.928;2024-02-14T12:00:43;5.60;;;2.25;;
19623;SDS011;9959;49.798;9.928;2024-02-14T12:03:23;5.78;;;2.72;;
19623;SDS011;9959;49.798;9.928;2024-02-14T12:05:50;4.30;;;2.33;;
19623;SDS011;9959;49.798;9.928;2024-02-14T12:08:19;8.65;;;2.65;;
19623;SDS011;9959;49.798;9.928;2024-02-14T12:10:46;4.53;;;2.30;;
19623;SDS011;9959;49.798;9.928;2024-02-14T12:13:20;7.57;;;2.15;;
19623;SDS011;9959;49.798;9.928;2024-02-14T12:15:48;4.45;;;2.25;;
19623;SDS011;9959;49.798;9.928;2024-02-14T12:18:19;8.73;;;2.80;;
19623;SDS011;9959;49.798;9.928;2024-02-14T12:20:47;8.85;;;2.88;;
19623;SDS011;9959;49.798;9.928;2024-02-14T12:23:22;4.20;;;2.70;;
19623;SDS011;9959;49.798;9.928;2024-02-14T12:25:50;8.98;;;3.08;;
19623;SDS011;9959;49.798;9.928;2024-02-14T12:28:17;5.97;;;3.03;;
19623;SDS011;9959;49.798;9.928;2024-02-14T12:30:48;9.43;;;2.60;;
19623;SDS011;9959;49.798;9.928;2024-02-14T12:33:18;4.93;;;2.85;;
19623;SDS011;9959;49.798;9.928;2024-02-14T12:35:46;6.15;;;3.03;;
19623;SDS011;9959;49.798;9.928;2024-02-14T12:38:19;5.78;;;3.28;;
19623;SDS011;9959;49.798;9.928;2024-02-14T12:40:47;7.03;;;3.28;;
19623;SDS011;9959;49.798;9.928;2024-02-14T12:43:14;13.95;;;3.22;;
19623;SDS011;9959;49.798;9.928;2024-02-14T12:45:42;6.53;;;2.53;;
19623;SDS011;9959;49.798;9.928;2024-02-14T12:48:10;6.32;;;2.53;;
19623;SDS011;9959;49.798;9.928;2024-02-14T12:50:41;8.30;;;2.85;;
19623;SDS011;9959;49.798;9.928;2024-02-14T12:53:15;7.80;;;2.85;;
19623;SDS011;9959;49.798;9.928;2024-02-14T12:55:42;11.40;;;3.03;;
19623;SDS011;9959;49.798;9.928;2024-02-14T12:58:09;10.10;;;2.83;;
19623;SDS011;9959;49.798;9.928;2024-02-14T13:00:36;8.75;;;3.22;;
19623;SDS011;9959;49.798;9.928;2024-02-14T13:03:04;8.55;;;2.88;;
19623;SDS011;9959;49.798;9.928;2024-02-14T13:05:31;8.32;;;2.65;;
19623;SDS011;9959;49.798;9.928;2024-02-14T13:07:58;7.32;;;2.90;;
19623;SDS011;9959;49.798;9.928;2024-02-14T13:10:25;4.32;;;2.15;;
19623;SDS011;9959;49.798;9.928;2024-02-14T13:12:53;9.88;;;3.13;;
19623;SDS011;9959;49.798;9.928;2024-02-14T13:15:21;5.70;;;3.22;;
19623;SDS011;9959;49.798;9.928;2024-02-14T13:17:48;5.95;;;3.00;;
19623;SDS011;9959;49.798;9.928;2024-02-14T13:20:15;5.18;;;2.78;;
19623;SDS011;9959;49.798;9.928;2024-02-14T13:22:43;6.82;;;2.30;;
19623;SDS011;9959;49.798;9.928;2024-02-14T13:25:09;5.22;;;3.15;;
19623;SDS011;9959;49.798;9.928;2024-02-14T13:27:38;11.38;;;3.45;;
19623;SDS011;9959;49.798;9.928;2024-02-14T13:30:05;11.70;;;3.38;;
19623;SDS011;9959;49.798;9.928;2024-02-14T13:32:33;15.15;;;3.20;;
19623;SDS011;9959;49.798;9.928;2024-02-14T13:35:00;6.07;;;2.97;;
19623;SDS011;9959;49.798;9.928;2024-02-14T13:37:28;10.45;;;3.25;;
19623;SDS011;9959;49.798;9.928;2024-02-14T13:39:55;9.23;;;3.20;;
19623;SDS011;9959;49.798;9.928;2024-02-14T13:42:22;9.90;;;3.38;;
19623;SDS011;9959;49.798;9.928;2024-02-14T13:44:49;7.90;;;3.17;;
19623;SDS011;9959;49.798;9.928;2024-02-14T13:47:19;7.25;;;3.20;;
19623;SDS011;9959;49.798;9.928;2024-02-14T13:49:47;6.28;;;3.10;;
19623;SDS011;9959;49.798;9.928;2024-02-14T13:52:14;7.03;;;3.70;;
19623;SDS011;9959;49.798;9.928;2024-02-14T13:54:44;5.97;;;2.95;;
19623;SDS011;9959;49.798;9.928;2024-02-14T13:57:11;4.18;;;2.65;;
19623;SDS011;9959;49.798;9.928;2024-02-14T13:59:38;6.85;;;2.85;;
19623;SDS011;9959;49.798;9.928;2024-02-14T14:02:05;3.92;;;2.85;;
19623;SDS011;9959;49.798;9.928;2024-02-14T14:04:32;9.15;;;3.15;;
19623;SDS011;9959;49.798;9.928;2024-02-14T14:07:01;6.20;;;2.28;;
19623;SDS011;9959;49.798;9.928;2024-02-14T14:09:31;4.10;;;2.40;;
19623;SDS011;9959;49.798;9.928;2024-02-14T14:11:59;5.10;;;2.47;;
19623;SDS011;9959;49.798;9.928;2024-02-14T14:14:26;6.65;;;2.55;;
19623;SDS011;9959;49.798;9.928;2024-02-14T14:16:53;11.65;;;2.53;;
19623;SDS011;9959;49.798;9.928;2024-02-14T14:19:20;6.13;;;2.55;;
19623;SDS011;9959;49.798;9.928;2024-02-14T14:21:47;5.90;;;2.50;;
19623;SDS011;9959;49.798;9.928;2024-02-14T14:24:14;4.30;;;2.35;;
19623;SDS011;9959;49.798;9.928;2024-02-14T14:26:42;3.13;;;2.13;;
19623;SDS011;9959;49.798;9.928;2024-02-14T14:29:09;4.45;;;2.80;;
19623;SDS011;9959;49.798;9.928;2024-02-14T14:31:37;5.45;;;2.30;;
19623;SDS011;9959;49.798;9.928;2024-02-14T14:34:04;5.82;;;2.95;;
19623;SDS011;9959;49.798;9.928;2024-02-14T14:36:31;6.68;;;3.03;;
19623;SDS011;9959;49.798;9.928;2024-02-14T14:38:58;7.55;;;2.63;;
19623;SDS011;9959;49.798;9.928;2024-02-14T14:41:25;9.85;;;2.75;;
19623;SDS011;9959;49.798;9.928;2024-02-14T14:43:52;5.45;;;2.50;;
19623;SDS011;9959;49.798;9.928;2024-02-14T14:46:19;14.00;;;3.13;;
19623;SDS011;9959;49.798;9.928;2024-02-14T14:48:46;5.65;;;2.70;;
19623;SDS011;9959;49.798;9.928;2024-02-14T14:51:14;2.90;;;2.25;;
19623;SDS011;9959;49.798;9.928;2024-02-14T14:53:41;4.97;;;2.42;;
19623;SDS011;9959;49.798;9.928;2024-02-14T14:56:08;5.95;;;2.88;;
19623;SDS011;9959;49.798;9.928;2024-02-14T14:58:35;6.47;;;2.90;;
19623;SDS011;9959;49.798;9.928;2024-02-14T15:01:03;7.07;;;2.50;;
19623;SDS011;9959;49.798;9.928;2024-02-14T15:03:33;5.03;;;3.15;;
19623;SDS011;9959;49.798;9.928;2024-02-14T15:06:00;6.85;;;3.10;;
19623;SDS011;9959;49.798;9.928;2024-02-14T15:08:27;3.63;;;2.80;;